Baltasound, United Kingdom
Current Conditions -  °F | °C
As of 2:20 PM on Thursday 29 Jan 2015 (Local Time) from EGPM Reporting Station
Rain Showers Rain Showers  
Wind Chill: 29°   Ceiling: Unl
Heat Index: 39°   Visibility: 6mi
Dew Point: 32°   Wind: 23mph
Humidity: 75%   Direction: 270°W
Pressure: 28.47"   Gusts: NA
Location:  60.75°N, 0.85°W
Report Text: EGPM 291420Z 27020KT 9999 VCSH FEW018 SCT030 04/00 Q0964
Loading
Personal Weather Stations






























Interactive Weather Map New forecast layout! Learn more

10-Day Weather Forecast

Advertisements
Track Severe Weather on mobile